createdAt,value
2018-08-22T00:00:38.114Z,18.47
2018-08-22T00:01:59.012Z,18.43
2018-08-22T00:02:37.965Z,18.44
2018-08-22T00:03:37.879Z,18.37
2018-08-22T00:04:37.821Z,18.40
2018-08-22T00:05:37.740Z,18.39
2018-08-22T00:06:37.671Z,18.37
2018-08-22T00:07:58.572Z,18.39
2018-08-22T00:08:37.524Z,18.43
2018-08-22T00:09:37.449Z,18.34
2018-08-22T00:10:37.382Z,18.37
2018-08-22T00:11:37.311Z,18.31
2018-08-22T00:12:37.234Z,18.28
2018-08-22T00:13:58.138Z,18.21
2018-08-22T00:14:37.093Z,18.09
2018-08-22T00:15:37.005Z,18.06
2018-08-22T00:16:36.949Z,18.07
2018-08-22T00:17:36.863Z,18.09
2018-08-22T00:18:36.797Z,18.21
2018-08-22T00:19:57.695Z,18.09
2018-08-22T00:20:36.651Z,18.11
2018-08-22T00:21:36.577Z,18.07
2018-08-22T00:22:36.639Z,18.10
2018-08-22T00:23:36.419Z,18.09
2018-08-22T00:24:36.359Z,18.03
2018-08-22T00:25:57.261Z,18.07
2018-08-22T00:26:36.209Z,18.06
2018-08-22T00:27:36.131Z,18.16
2018-08-22T00:28:36.066Z,18.07
2018-08-22T00:29:35.989Z,17.96
2018-08-22T00:30:35.958Z,18.09
2018-08-22T00:31:56.819Z,18.04
2018-08-22T00:32:35.778Z,17.87
2018-08-22T00:33:35.688Z,17.87
2018-08-22T00:34:35.623Z,17.84
2018-08-22T00:35:35.545Z,17.71
2018-08-22T00:36:35.477Z,17.69
2018-08-22T00:37:56.380Z,17.73
2018-08-22T00:38:35.332Z,17.64
2018-08-22T00:39:35.248Z,17.69
2018-08-22T00:40:35.186Z,17.69
2018-08-22T00:41:35.105Z,17.77
2018-08-22T00:42:35.044Z,17.67
2018-08-22T00:43:55.937Z,17.63
2018-08-22T00:44:34.898Z,17.66
2018-08-22T00:45:34.815Z,17.58
2018-08-22T00:46:34.747Z,17.66
2018-08-22T00:47:34.665Z,17.58
2018-08-22T00:48:34.601Z,17.57
2018-08-22T00:49:55.504Z,17.55
2018-08-22T00:50:34.451Z,17.46
2018-08-22T00:51:34.373Z,17.57
2018-08-22T00:52:34.307Z,17.50
2018-08-22T00:53:34.229Z,17.58
2018-08-22T00:54:34.160Z,17.51
2018-08-22T00:55:55.065Z,17.64
2018-08-22T00:56:34.010Z,17.66
2018-08-22T00:57:33.928Z,17.58
2018-08-22T00:58:33.864Z,17.63
2018-08-22T00:59:33.785Z,17.66
2018-08-22T01:00:33.724Z,17.64
2018-08-22T01:01:54.623Z,17.69
2018-08-22T01:02:33.568Z,17.69
2018-08-22T01:03:33.486Z,17.66
2018-08-22T01:04:33.427Z,17.63
2018-08-22T01:05:33.341Z,17.46
2018-08-22T01:06:33.275Z,17.48
2018-08-22T01:07:54.177Z,17.39
2018-08-22T01:08:33.133Z,17.38
2018-08-22T01:09:33.048Z,17.35
2018-08-22T01:10:32.980Z,17.43
2018-08-22T01:11:32.901Z,17.39
2018-08-22T01:12:32.835Z,17.43
2018-08-22T01:13:53.734Z,17.44
2018-08-22T01:14:32.690Z,17.51
2018-08-22T01:15:32.604Z,17.40
2018-08-22T01:16:32.541Z,17.44
2018-08-22T01:17:32.456Z,17.51
2018-08-22T01:18:32.396Z,17.50
2018-08-22T01:19:53.292Z,17.57
2018-08-22T01:20:32.241Z,17.57
2018-08-22T01:21:32.167Z,17.57
2018-08-22T01:22:32.101Z,17.54
2018-08-22T01:23:32.015Z,17.53
2018-08-22T01:24:31.945Z,17.47
2018-08-22T01:25:52.849Z,17.28
2018-08-22T01:26:31.817Z,17.26
2018-08-22T01:27:31.721Z,17.28
2018-08-22T01:28:31.659Z,17.17
2018-08-22T01:29:31.573Z,17.23
2018-08-22T01:30:31.510Z,17.17
2018-08-22T01:31:52.408Z,17.10
2018-08-22T01:32:31.362Z,17.05
2018-08-22T01:33:31.285Z,16.96
2018-08-22T01:34:31.217Z,16.93
2018-08-22T01:35:31.133Z,16.99
2018-08-22T01:36:31.071Z,16.95
2018-08-22T01:37:51.967Z,16.99
2018-08-22T01:38:30.916Z,17.05
2018-08-22T01:39:30.846Z,16.93
2018-08-22T01:40:30.776Z,17.00
2018-08-22T01:41:30.698Z,16.98
2018-08-22T01:42:30.622Z,17.05
2018-08-22T01:43:51.523Z,16.95
2018-08-22T01:44:30.476Z,16.96
2018-08-22T01:45:30.395Z,16.84
2018-08-22T01:46:30.335Z,16.89
2018-08-22T01:47:30.242Z,16.85
2018-08-22T01:48:30.179Z,16.74
2018-08-22T01:49:51.089Z,16.80
2018-08-22T01:50:30.032Z,16.77
2018-08-22T01:51:29.951Z,16.73
2018-08-22T01:52:29.883Z,16.71
2018-08-22T01:53:29.801Z,16.70
2018-08-22T01:54:29.742Z,16.77
2018-08-22T01:55:50.637Z,16.82
2018-08-22T01:56:29.591Z,16.81
2018-08-22T01:57:29.506Z,16.82
2018-08-22T01:58:29.437Z,16.71
2018-08-22T01:59:29.354Z,16.67
2018-08-22T02:00:29.293Z,16.60
2018-08-22T02:01:50.202Z,16.57
2018-08-22T02:02:29.140Z,16.53
2018-08-22T02:03:29.059Z,16.65
2018-08-22T02:04:29.000Z,16.60
2018-08-22T02:05:28.912Z,16.70
2018-08-22T02:06:28.847Z,16.75
2018-08-22T02:07:49.746Z,16.65
2018-08-22T02:08:28.698Z,16.75
2018-08-22T02:09:28.615Z,16.82
2018-08-22T02:10:28.551Z,16.84
2018-08-22T02:11:28.472Z,16.92
2018-08-22T02:12:28.404Z,16.82
2018-08-22T02:13:49.306Z,16.88
2018-08-22T02:14:28.259Z,16.96
2018-08-22T02:15:28.170Z,16.95
2018-08-22T02:16:28.105Z,16.95
2018-08-22T02:17:28.025Z,17.00
2018-08-22T02:18:27.961Z,16.98
2018-08-22T02:19:48.859Z,17.03
2018-08-22T02:20:27.808Z,17.05
2018-08-22T02:21:27.728Z,17.02
2018-08-22T02:22:27.656Z,16.95
2018-08-22T02:23:27.586Z,16.93
2018-08-22T02:24:27.508Z,16.95
2018-08-22T02:25:48.414Z,16.96
2018-08-22T02:26:27.368Z,16.95
2018-08-22T02:27:27.280Z,16.96
2018-08-22T02:28:27.222Z,16.98
2018-08-22T02:29:27.131Z,17.03
2018-08-22T02:30:27.074Z,16.99
2018-08-22T02:31:47.968Z,16.95
2018-08-22T02:32:26.922Z,17.00
2018-08-22T02:33:26.844Z,16.90
2018-08-22T02:34:26.772Z,16.93
2018-08-22T02:35:26.691Z,16.89
2018-08-22T02:36:26.630Z,16.81
2018-08-22T02:37:47.525Z,16.75
2018-08-22T02:38:26.478Z,16.74
2018-08-22T02:39:26.393Z,16.66
2018-08-22T02:40:26.326Z,16.57
2018-08-22T02:41:26.244Z,16.62
2018-08-22T02:42:26.179Z,16.57
2018-08-22T02:43:47.076Z,16.52
2018-08-22T02:44:26.026Z,16.44
2018-08-22T02:45:25.948Z,16.47
2018-08-22T02:46:25.887Z,16.41
2018-08-22T02:47:25.803Z,16.47
2018-08-22T02:48:25.734Z,16.53
2018-08-22T02:49:46.637Z,16.55
2018-08-22T02:50:25.586Z,16.63
2018-08-22T02:51:25.499Z,16.73
2018-08-22T02:52:25.436Z,16.70
2018-08-22T02:53:25.358Z,16.65
2018-08-22T02:54:25.289Z,16.71
2018-08-22T02:55:46.186Z,16.77
2018-08-22T02:56:25.137Z,16.80
2018-08-22T02:57:25.061Z,16.89
2018-08-22T02:58:24.993Z,16.85
2018-08-22T02:59:24.904Z,16.88
2018-08-22T03:00:24.839Z,16.89
2018-08-22T03:01:45.746Z,16.90
2018-08-22T03:02:24.693Z,16.85
2018-08-22T03:03:24.612Z,16.82
2018-08-22T03:04:24.543Z,16.71
2018-08-22T03:05:24.460Z,16.71
2018-08-22T03:06:24.395Z,16.56
2018-08-22T03:07:45.300Z,16.55
2018-08-22T03:08:24.247Z,16.38
2018-08-22T03:09:24.167Z,16.37
2018-08-22T03:10:24.101Z,16.33
2018-08-22T03:11:24.018Z,16.26
2018-08-22T03:12:23.952Z,16.29
2018-08-22T03:13:44.854Z,16.23
2018-08-22T03:14:23.804Z,16.26
2018-08-22T03:15:23.724Z,16.23
2018-08-22T03:16:23.650Z,16.20
2018-08-22T03:17:23.573Z,16.18
2018-08-22T03:18:23.510Z,16.27
2018-08-22T03:19:44.404Z,16.20
2018-08-22T03:20:23.352Z,16.18
2018-08-22T03:21:23.272Z,16.20
2018-08-22T03:22:23.204Z,16.25
2018-08-22T03:23:23.123Z,16.29
2018-08-22T03:24:23.063Z,16.25
2018-08-22T03:25:43.963Z,16.27
2018-08-22T03:26:22.912Z,16.34
2018-08-22T03:27:22.826Z,16.33
2018-08-22T03:28:22.761Z,16.37
2018-08-22T03:29:22.675Z,16.34
2018-08-22T03:30:22.611Z,16.42
2018-08-22T03:31:43.516Z,16.41
2018-08-22T03:32:22.467Z,16.45
2018-08-22T03:33:22.384Z,16.35
2018-08-22T03:34:22.313Z,16.45
2018-08-22T03:35:22.229Z,16.29
2018-08-22T03:36:22.165Z,16.37
2018-08-22T03:37:43.069Z,16.35
2018-08-22T03:38:22.015Z,16.33
2018-08-22T03:39:21.931Z,16.35
2018-08-22T03:40:21.876Z,16.37
2018-08-22T03:41:21.785Z,16.35
2018-08-22T03:42:21.721Z,16.34
2018-08-22T03:43:42.611Z,16.41
2018-08-22T03:44:21.569Z,16.38
2018-08-22T03:45:21.486Z,16.41
2018-08-22T03:46:21.415Z,16.38
2018-08-22T03:47:21.340Z,16.35
2018-08-22T03:48:21.274Z,16.41
2018-08-22T03:49:42.169Z,16.44
2018-08-22T03:50:21.121Z,16.38
2018-08-22T03:51:21.036Z,16.30
2018-08-22T03:52:20.970Z,16.14
2018-08-22T03:53:20.898Z,16.20
2018-08-22T03:54:20.827Z,16.22
2018-08-22T03:55:41.725Z,16.14
2018-08-22T03:56:20.676Z,16.12
2018-08-22T03:57:20.588Z,16.15
2018-08-22T03:58:20.525Z,16.01
2018-08-22T03:59:20.443Z,16.06
2018-08-22T04:00:20.376Z,16.07
2018-08-22T04:01:41.276Z,16.04
2018-08-22T04:02:20.229Z,16.06
2018-08-22T04:03:20.146Z,16.12
2018-08-22T04:04:20.086Z,16.20
2018-08-22T04:05:19.993Z,16.23
2018-08-22T04:06:19.926Z,16.10
2018-08-22T04:07:40.833Z,16.30
2018-08-22T04:08:19.770Z,16.27
2018-08-22T04:09:19.700Z,16.33
2018-08-22T04:10:19.620Z,16.30
2018-08-22T04:11:19.552Z,16.34
2018-08-22T04:12:19.475Z,16.34
2018-08-22T04:13:40.388Z,16.37
2018-08-22T04:14:19.322Z,16.35
2018-08-22T04:15:19.247Z,16.33
2018-08-22T04:16:19.179Z,16.29
2018-08-22T04:17:19.095Z,16.22
2018-08-22T04:18:19.035Z,16.12
2018-08-22T04:19:39.932Z,16.18
2018-08-22T04:20:18.886Z,16.12
2018-08-22T04:21:18.797Z,16.07
2018-08-22T04:22:18.735Z,16.03
2018-08-22T04:23:18.647Z,16.04
2018-08-22T04:24:18.586Z,16.07
2018-08-22T04:25:39.483Z,16.03
2018-08-22T04:26:18.453Z,15.91
2018-08-22T04:27:18.348Z,15.96
2018-08-22T04:28:18.283Z,15.71
2018-08-22T04:29:18.203Z,15.59
2018-08-22T04:30:18.136Z,15.53
2018-08-22T04:31:39.037Z,15.61
2018-08-22T04:32:17.984Z,15.59
2018-08-22T04:33:17.905Z,15.63
2018-08-22T04:34:17.837Z,15.61
2018-08-22T04:35:17.753Z,15.70
2018-08-22T04:36:17.686Z,15.73
2018-08-22T04:37:38.587Z,15.79
2018-08-22T04:38:17.536Z,15.92
2018-08-22T04:39:17.453Z,15.96
2018-08-22T04:40:17.385Z,16.00
2018-08-22T04:41:17.309Z,16.01
2018-08-22T04:42:17.235Z,16.00
2018-08-22T04:43:38.138Z,16.06
2018-08-22T04:44:17.086Z,16.04
2018-08-22T04:45:17.008Z,16.08
2018-08-22T04:46:16.936Z,16.16
2018-08-22T04:47:16.853Z,16.20
2018-08-22T04:48:16.796Z,16.22
2018-08-22T04:49:37.691Z,16.20
2018-08-22T04:50:16.652Z,16.27
2018-08-22T04:51:16.555Z,16.29
2018-08-22T04:52:16.495Z,16.20
2018-08-22T04:53:16.405Z,16.23
2018-08-22T04:54:16.351Z,16.26
2018-08-22T04:55:37.250Z,16.30
2018-08-22T04:56:16.193Z,16.23
2018-08-22T04:57:16.115Z,16.29
2018-08-22T04:58:16.046Z,16.16
2018-08-22T04:59:15.963Z,16.18
2018-08-22T05:00:15.898Z,16.14
2018-08-22T05:01:36.796Z,16.03
2018-08-22T05:02:15.744Z,16.04
2018-08-22T05:03:15.667Z,15.99
2018-08-22T05:04:15.593Z,15.96
2018-08-22T05:05:15.517Z,15.96
2018-08-22T05:06:15.444Z,16.01
2018-08-22T05:07:36.342Z,16.00
2018-08-22T05:08:15.297Z,16.08
2018-08-22T05:09:15.211Z,16.18
2018-08-22T05:10:15.149Z,16.16
2018-08-22T05:11:15.073Z,16.14
2018-08-22T05:12:14.991Z,16.12
2018-08-22T05:13:35.904Z,16.07
2018-08-22T05:14:14.838Z,16.08
2018-08-22T05:15:14.775Z,16.06
2018-08-22T05:16:14.696Z,16.07
2018-08-22T05:17:14.613Z,16.12
2018-08-22T05:18:14.550Z,16.10
2018-08-22T05:19:35.454Z,16.15
2018-08-22T05:20:14.395Z,16.16
2018-08-22T05:21:14.313Z,16.22
2018-08-22T05:22:14.249Z,16.29
2018-08-22T05:23:14.169Z,16.29
2018-08-22T05:24:14.094Z,16.35
2018-08-22T05:25:34.998Z,16.34
2018-08-22T05:26:13.949Z,16.44
2018-08-22T05:27:13.871Z,16.47
2018-08-22T05:28:13.805Z,16.41
2018-08-22T05:29:13.715Z,16.42
2018-08-22T05:30:13.749Z,16.56
2018-08-22T05:31:34.551Z,16.59
2018-08-22T05:32:13.500Z,16.62
2018-08-22T05:33:13.416Z,16.62
2018-08-22T05:34:13.348Z,16.74
2018-08-22T05:35:13.274Z,16.81
2018-08-22T05:36:13.205Z,16.84
2018-08-22T05:37:34.107Z,16.82
2018-08-22T05:38:13.050Z,16.85
2018-08-22T05:39:12.974Z,16.95
2018-08-22T05:40:12.903Z,17.00
2018-08-22T05:41:12.826Z,17.05
2018-08-22T05:42:12.867Z,17.11
2018-08-22T05:43:33.653Z,17.18
2018-08-22T05:44:12.616Z,17.17
2018-08-22T05:45:12.576Z,17.15
2018-08-22T05:46:12.449Z,17.28
2018-08-22T05:47:12.499Z,17.35
2018-08-22T05:48:12.303Z,17.35
2018-08-22T05:49:33.301Z,17.44
2018-08-22T05:50:12.158Z,17.50
2018-08-22T05:51:12.080Z,17.60
2018-08-22T05:52:12.122Z,17.66
2018-08-22T05:53:11.925Z,17.70
2018-08-22T05:54:11.933Z,17.71
2018-08-22T05:55:32.756Z,17.79
2018-08-22T05:56:11.709Z,17.81
2018-08-22T05:57:11.638Z,17.89
2018-08-22T05:58:11.652Z,17.91
2018-08-22T05:59:11.489Z,17.92
2018-08-22T06:00:11.468Z,17.98
2018-08-22T06:01:32.322Z,18.09
2018-08-22T06:02:11.262Z,18.09
2018-08-22T06:03:11.307Z,18.16
2018-08-22T06:04:11.107Z,18.11
2018-08-22T06:05:11.039Z,18.21
2018-08-22T06:06:10.993Z,18.24
2018-08-22T06:07:31.881Z,18.27
2018-08-22T06:08:10.825Z,18.32
2018-08-22T06:09:10.858Z,18.28
2018-08-22T06:10:10.670Z,18.40
2018-08-22T06:11:10.594Z,18.39
2018-08-22T06:12:10.515Z,18.42
2018-08-22T06:13:31.523Z,18.44
2018-08-22T06:14:10.411Z,18.58
2018-08-22T06:15:10.293Z,18.49
2018-08-22T06:16:10.233Z,18.57
2018-08-22T06:17:10.151Z,18.55
2018-08-22T06:18:10.157Z,18.61
2018-08-22T06:19:30.986Z,18.64
2018-08-22T06:20:09.943Z,18.65
2018-08-22T06:21:09.851Z,18.80
2018-08-22T06:22:09.860Z,18.87
2018-08-22T06:23:09.702Z,18.83
2018-08-22T06:24:09.732Z,18.84
2018-08-22T06:25:30.569Z,18.98
2018-08-22T06:26:09.575Z,18.99
2018-08-22T06:27:09.413Z,19.09
2018-08-22T06:28:09.383Z,19.01
2018-08-22T06:29:09.273Z,19.09
2018-08-22T06:30:09.298Z,19.20
2018-08-22T06:31:30.099Z,19.17
2018-08-22T06:32:09.102Z,19.18
2018-08-22T06:33:09.045Z,19.28
2018-08-22T06:34:08.901Z,19.32
2018-08-22T06:35:08.827Z,19.43
2018-08-22T06:36:08.833Z,19.45
2018-08-22T06:37:29.661Z,19.46
2018-08-22T06:38:08.627Z,19.53
2018-08-22T06:39:08.533Z,19.60
2018-08-22T06:40:08.461Z,19.64
2018-08-22T06:41:08.388Z,19.58
2018-08-22T06:42:08.351Z,19.72
2018-08-22T06:43:29.219Z,19.76
2018-08-22T06:44:08.201Z,19.87
2018-08-22T06:45:08.091Z,19.91
2018-08-22T06:46:08.069Z,20.00
2018-08-22T06:47:07.947Z,20.03
2018-08-22T06:48:07.980Z,20.01
2018-08-22T06:49:28.783Z,20.13
2018-08-22T06:50:08.443Z,20.09
2018-08-22T06:51:07.655Z,20.13
2018-08-22T06:52:07.595Z,20.15
2018-08-22T06:53:07.503Z,20.31
2018-08-22T06:54:07.510Z,20.23
2018-08-22T06:55:28.336Z,20.20
2018-08-22T06:56:07.319Z,20.38
2018-08-22T06:57:07.250Z,20.34
2018-08-22T06:58:07.229Z,20.30
2018-08-22T06:59:07.073Z,20.50
2018-08-22T07:00:07.035Z,20.46
2018-08-22T07:01:27.910Z,20.59
2018-08-22T07:02:06.952Z,20.59
2018-08-22T07:03:06.766Z,20.68
2018-08-22T07:04:06.755Z,20.83
2018-08-22T07:05:06.634Z,20.89
2018-08-22T07:06:06.668Z,20.94
2018-08-22T07:07:27.460Z,21.06
2018-08-22T07:08:06.584Z,21.08
2018-08-22T07:09:06.333Z,21.14
2018-08-22T07:10:06.270Z,21.23
2018-08-22T07:11:06.188Z,21.23
2018-08-22T07:12:06.199Z,21.30
2018-08-22T07:13:27.035Z,21.38
2018-08-22T07:14:05.992Z,21.42
2018-08-22T07:15:05.915Z,21.53
2018-08-22T07:16:05.835Z,21.59
2018-08-22T07:17:05.752Z,21.61
2018-08-22T07:18:05.724Z,21.67
2018-08-22T07:19:26.594Z,21.85
2018-08-22T07:20:05.639Z,21.97
2018-08-22T07:21:05.504Z,21.92
2018-08-22T07:22:05.454Z,22.02
2018-08-22T07:23:05.338Z,22.10
2018-08-22T07:24:05.356Z,22.08
2018-08-22T07:25:26.171Z,22.19
2018-08-22T07:26:05.109Z,22.23
2018-08-22T07:27:05.027Z,22.24
2018-08-22T07:28:04.971Z,22.32
2018-08-22T07:29:04.886Z,22.39
2018-08-22T07:30:04.943Z,22.62
2018-08-22T07:31:25.728Z,22.68
2018-08-22T07:32:04.692Z,22.83
2018-08-22T07:33:04.596Z,22.79
2018-08-22T07:34:04.603Z,22.83
2018-08-22T07:35:04.461Z,22.96
2018-08-22T07:36:04.417Z,23.09
2018-08-22T07:37:25.291Z,23.17
2018-08-22T07:38:04.325Z,23.24
2018-08-22T07:39:04.175Z,23.31
2018-08-22T07:40:04.131Z,23.31
2018-08-22T07:41:04.035Z,23.46
2018-08-22T07:42:03.958Z,23.48
2018-08-22T07:43:24.867Z,23.58
2018-08-22T07:44:03.850Z,23.60
2018-08-22T07:45:03.749Z,23.72
2018-08-22T07:46:03.763Z,23.85
2018-08-22T07:47:03.605Z,23.98
2018-08-22T07:48:03.579Z,24.05
2018-08-22T07:49:24.477Z,24.19
2018-08-22T07:50:03.402Z,24.23
2018-08-22T07:51:03.312Z,24.32
2018-08-22T07:52:03.288Z,24.34
2018-08-22T07:53:03.196Z,24.48
2018-08-22T07:54:03.202Z,24.57
2018-08-22T07:55:24.013Z,24.78
2018-08-22T07:56:03.011Z,24.88
2018-08-22T07:57:02.893Z,25.04
2018-08-22T07:58:02.820Z,25.05
2018-08-22T07:59:02.759Z,25.19
2018-08-22T08:00:02.735Z,25.23
2018-08-22T08:01:23.604Z,25.32
2018-08-22T08:02:02.692Z,25.35
2018-08-22T08:03:02.467Z,25.55
2018-08-22T08:04:02.410Z,25.64
2018-08-22T08:05:02.344Z,25.75
2018-08-22T08:06:02.368Z,25.93
2018-08-22T08:07:23.174Z,26.02
2018-08-22T08:08:02.172Z,26.08
2018-08-22T08:09:02.063Z,26.15
2018-08-22T08:10:02.081Z,26.30
2018-08-22T08:11:01.944Z,26.39
2018-08-22T08:12:01.889Z,26.35
2018-08-22T08:13:22.763Z,26.53
2018-08-22T08:14:01.803Z,26.57
2018-08-22T08:15:01.644Z,26.60
2018-08-22T08:16:01.615Z,26.65
2018-08-22T08:17:01.540Z,26.64
2018-08-22T08:18:01.638Z,26.55
2018-08-22T08:19:22.409Z,26.57
2018-08-22T08:20:01.336Z,26.55
2018-08-22T08:21:01.228Z,26.67
2018-08-22T08:22:01.382Z,26.79
2018-08-22T08:23:01.124Z,26.83
2018-08-22T08:24:01.051Z,27.05
2018-08-22T08:25:21.941Z,27.21
2018-08-22T08:26:01.078Z,27.35
2018-08-22T08:27:00.887Z,27.35
2018-08-22T08:28:00.780Z,27.35
2018-08-22T08:29:00.708Z,27.46
2018-08-22T08:30:00.683Z,27.57
2018-08-22T08:31:21.537Z,27.49
2018-08-22T08:32:00.692Z,27.44
2018-08-22T08:33:00.401Z,27.54
2018-08-22T08:34:00.412Z,27.58
2018-08-22T08:35:00.280Z,27.65
2018-08-22T08:36:00.471Z,27.65
2018-08-22T08:37:21.123Z,27.82
2018-08-22T08:38:01.151Z,27.79
2018-08-22T08:38:59.994Z,27.88
2018-08-22T08:39:59.930Z,27.73
2018-08-22T08:40:59.868Z,27.64
2018-08-22T08:41:59.841Z,27.65
2018-08-22T08:43:20.742Z,27.64
2018-08-22T08:43:59.751Z,27.84
2018-08-22T08:44:59.598Z,27.99
2018-08-22T08:45:59.560Z,28.07
2018-08-22T08:46:59.461Z,28.02
2018-08-22T08:47:59.476Z,27.89
2018-08-22T08:49:20.321Z,27.94
2018-08-22T08:49:59.278Z,27.76
2018-08-22T08:50:59.190Z,27.83
2018-08-22T08:51:59.359Z,27.91
2018-08-22T08:52:59.049Z,27.94
2018-08-22T08:53:58.988Z,27.98
2018-08-22T08:55:19.914Z,28.16
2018-08-22T08:55:58.848Z,28.25
2018-08-22T08:56:58.789Z,28.35
2018-08-22T08:57:58.766Z,28.31
2018-08-22T08:58:58.658Z,28.46
2018-08-22T08:59:58.590Z,28.38
2018-08-22T09:01:19.517Z,28.47
2018-08-22T09:01:58.457Z,28.56
2018-08-22T09:02:58.384Z,28.69
2018-08-22T09:03:58.456Z,28.94
2018-08-22T09:04:58.249Z,29.14
2018-08-22T09:05:58.191Z,29.29
2018-08-22T09:07:19.109Z,29.48
2018-08-22T09:07:58.050Z,29.44
2018-08-22T09:08:58.070Z,29.44
2018-08-22T09:09:57.924Z,29.53
2018-08-22T09:10:57.900Z,29.63
2018-08-22T09:11:57.785Z,29.53
2018-08-22T09:13:18.713Z,29.68
2018-08-22T09:13:57.702Z,29.66
2018-08-22T09:14:57.595Z,29.66
2018-08-22T09:15:57.528Z,29.75
2018-08-22T09:16:57.461Z,29.89
2018-08-22T09:17:57.425Z,30.03
2018-08-22T09:19:18.314Z,30.08
2018-08-22T09:19:57.271Z,30.21
2018-08-22T09:20:57.245Z,30.29
2018-08-22T09:21:57.128Z,30.39
2018-08-22T09:22:57.145Z,30.43
2018-08-22T09:23:57.036Z,30.52
2018-08-22T09:25:18.166Z,30.55
2018-08-22T09:25:57.128Z,30.53
2018-08-22T09:26:56.827Z,30.60
2018-08-22T09:27:56.781Z,30.79
2018-08-22T09:28:56.809Z,30.86
2018-08-22T09:29:56.656Z,30.79
2018-08-22T09:31:17.695Z,30.85
2018-08-22T09:31:56.483Z,30.79
2018-08-22T09:32:56.441Z,30.86
2018-08-22T09:33:56.379Z,31.04
2018-08-22T09:34:56.338Z,31.05
2018-08-22T09:35:56.250Z,31.11
2018-08-22T09:37:17.164Z,31.23
2018-08-22T09:37:56.197Z,31.24
2018-08-22T09:38:56.080Z,31.23
2018-08-22T09:39:56.099Z,31.41
2018-08-22T09:40:55.891Z,31.41
2018-08-22T09:41:55.899Z,31.46
2018-08-22T09:43:16.784Z,31.52
2018-08-22T09:43:55.812Z,31.49
2018-08-22T09:44:55.638Z,31.39
2018-08-22T09:45:55.626Z,31.39
2018-08-22T09:46:55.566Z,31.42
2018-08-22T09:47:55.473Z,31.49
2018-08-22T09:49:16.951Z,31.68
2018-08-22T09:49:55.401Z,31.76
2018-08-22T09:50:55.292Z,31.53
2018-08-22T09:51:55.252Z,31.42
2018-08-22T09:52:55.119Z,31.38
2018-08-22T09:53:55.089Z,31.39
2018-08-22T09:55:16.024Z,31.24
2018-08-22T09:55:54.954Z,31.31
2018-08-22T09:56:54.982Z,31.27
2018-08-22T09:57:54.822Z,31.33
2018-08-22T09:58:54.819Z,31.39
2018-08-22T09:59:54.701Z,31.55
2018-08-22T10:01:15.597Z,31.51
2018-08-22T10:01:54.607Z,31.52
2018-08-22T10:02:54.479Z,31.55
2018-08-22T10:03:54.449Z,31.63
2018-08-22T10:04:54.349Z,31.76
2018-08-22T10:05:54.316Z,31.78
2018-08-22T10:07:15.331Z,31.90
2018-08-22T10:07:54.266Z,31.96
2018-08-22T10:08:54.093Z,32.11
2018-08-22T10:09:55.158Z,32.31
2018-08-22T10:10:53.971Z,32.35
2018-08-22T10:11:53.961Z,32.46
2018-08-22T10:13:14.833Z,32.33
2018-08-22T10:13:53.874Z,32.13
2018-08-22T10:14:53.715Z,32.21
2018-08-22T10:15:53.663Z,31.99
2018-08-22T10:16:53.597Z,31.89
2018-08-22T10:17:53.519Z,31.87
2018-08-22T10:19:14.457Z,31.95
2018-08-22T10:19:53.505Z,31.98
2018-08-22T10:20:53.335Z,32.03
2018-08-22T10:21:53.314Z,32.08
2018-08-22T10:22:53.207Z,32.32
2018-08-22T10:23:53.181Z,32.43
2018-08-22T10:25:14.082Z,32.62
2018-08-22T10:25:53.133Z,32.58
2018-08-22T10:26:52.979Z,32.69
2018-08-22T10:27:52.946Z,32.89
2018-08-22T10:28:52.830Z,32.84
2018-08-22T10:29:52.854Z,32.88
2018-08-22T10:31:13.702Z,32.94
2018-08-22T10:31:52.666Z,32.94
2018-08-22T10:32:52.650Z,33.16
2018-08-22T10:33:52.576Z,33.20
2018-08-22T10:34:52.449Z,33.14
2018-08-22T10:35:52.412Z,33.14
2018-08-22T10:37:13.384Z,33.14
2018-08-22T10:37:52.293Z,33.21
2018-08-22T10:38:52.701Z,33.19
2018-08-22T10:39:57.268Z,33.32
2018-08-22T10:40:52.667Z,33.40
2018-08-22T10:41:57.041Z,33.39
2018-08-22T10:43:13.369Z,33.20
2018-08-22T10:43:51.898Z,32.99
2018-08-22T10:44:54.363Z,32.88
2018-08-22T10:45:51.772Z,32.77
2018-08-22T10:46:51.704Z,32.57
2018-08-22T10:47:51.719Z,32.45
2018-08-22T10:49:12.583Z,32.31
2018-08-22T10:49:51.633Z,32.20
2018-08-22T10:50:51.477Z,32.06
2018-08-22T10:51:51.413Z,32.14
2018-08-22T10:52:51.452Z,32.38
2018-08-22T10:53:51.323Z,32.57
2018-08-22T10:55:12.223Z,32.72
2018-08-22T10:55:51.164Z,32.80
2018-08-22T10:56:51.090Z,32.89
2018-08-22T10:57:51.029Z,33.02
2018-08-22T10:58:50.959Z,33.17
2018-08-22T10:59:50.892Z,33.27
2018-08-22T11:01:11.833Z,33.40
2018-08-22T11:01:50.794Z,33.60
2018-08-22T11:02:50.692Z,33.61
2018-08-22T11:03:50.644Z,33.83
2018-08-22T11:04:50.665Z,33.74
2018-08-22T11:05:50.515Z,33.66
2018-08-22T11:07:11.466Z,33.47
2018-08-22T11:07:50.391Z,33.54
2018-08-22T11:08:50.338Z,33.56
2018-08-22T11:09:50.274Z,33.76
2018-08-22T11:10:50.211Z,33.79
2018-08-22T11:11:50.140Z,33.91
2018-08-22T11:13:11.106Z,34.07
2018-08-22T11:13:50.022Z,34.07
2018-08-22T11:14:49.950Z,34.22
2018-08-22T11:15:49.997Z,34.16
2018-08-22T11:16:49.839Z,34.30
2018-08-22T11:17:49.830Z,34.30
2018-08-22T11:19:10.696Z,34.29
2018-08-22T11:19:49.644Z,34.18
2018-08-22T11:20:49.576Z,34.25
2018-08-22T11:21:49.516Z,34.25
2018-08-22T11:22:49.452Z,34.23
2018-08-22T11:23:49.400Z,34.32
2018-08-22T11:25:10.315Z,34.35
2018-08-22T11:25:49.374Z,34.48
2018-08-22T11:26:49.202Z,34.53
2018-08-22T11:27:49.177Z,34.13
2018-08-22T11:28:49.076Z,33.88
2018-08-22T11:29:49.090Z,33.63
2018-08-22T11:31:09.938Z,33.58
2018-08-22T11:31:49.001Z,33.74
2018-08-22T11:32:48.828Z,33.91
2018-08-22T11:33:48.812Z,34.03
2018-08-22T11:34:48.713Z,34.10
2018-08-22T11:35:48.722Z,34.27
2018-08-22T11:37:09.573Z,34.32
2018-08-22T11:37:48.640Z,34.20
2018-08-22T11:38:48.458Z,34.13
2018-08-22T11:39:48.442Z,34.03
2018-08-22T11:40:48.338Z,34.10
2018-08-22T11:41:48.353Z,33.97
2018-08-22T11:43:09.199Z,33.88
2018-08-22T11:43:48.266Z,33.79
2018-08-22T11:44:48.090Z,33.56
2018-08-22T11:45:48.039Z,33.55
2018-08-22T11:46:48.017Z,33.45
2018-08-22T11:47:47.982Z,33.24
2018-08-22T11:49:15.066Z,32.84
2018-08-22T11:49:55.446Z,32.72
2018-08-22T11:50:47.716Z,32.51
2018-08-22T11:51:47.702Z,32.39
2018-08-22T11:52:47.596Z,32.33
2018-08-22T11:53:47.537Z,32.31
2018-08-22T11:55:08.453Z,32.20
2018-08-22T11:55:47.415Z,32.18
2018-08-22T11:56:47.352Z,32.21
2018-08-22T11:57:47.289Z,32.23
2018-08-22T11:58:47.225Z,32.32
2018-08-22T11:59:47.164Z,32.36
2018-08-22T12:01:08.092Z,32.60
2018-08-22T12:01:47.100Z,32.79
2018-08-22T12:02:46.980Z,32.94
2018-08-22T12:03:46.928Z,32.76
2018-08-22T12:04:46.858Z,32.77
2018-08-22T12:05:49.262Z,32.88
2018-08-22T12:07:07.707Z,32.88
2018-08-22T12:07:46.685Z,32.77
2018-08-22T12:08:46.604Z,32.73
2018-08-22T12:09:46.543Z,32.61
2018-08-22T12:10:46.483Z,32.61
2018-08-22T12:11:46.424Z,32.77
2018-08-22T12:13:07.337Z,32.75
2018-08-22T12:13:46.320Z,32.88
2018-08-22T12:14:46.232Z,32.91
2018-08-22T12:15:46.225Z,32.98
2018-08-22T12:16:46.106Z,32.98
2018-08-22T12:17:46.040Z,33.14
2018-08-22T12:19:06.961Z,33.09
2018-08-22T12:19:45.946Z,33.09
2018-08-22T12:20:45.847Z,33.11
2018-08-22T12:21:45.859Z,33.19
2018-08-22T12:22:45.722Z,33.32
2018-08-22T12:23:45.670Z,33.39
2018-08-22T12:25:06.598Z,33.58
2018-08-22T12:25:45.550Z,33.73
2018-08-22T12:26:45.484Z,33.83
2018-08-22T12:27:45.488Z,33.97
2018-08-22T12:28:45.360Z,34.08
2018-08-22T12:29:45.302Z,34.26
2018-08-22T12:31:06.243Z,34.41
2018-08-22T12:31:45.210Z,34.34
2018-08-22T12:32:45.109Z,34.23
2018-08-22T12:33:45.119Z,34.34
2018-08-22T12:34:44.990Z,34.42
2018-08-22T12:35:45.033Z,34.37
2018-08-22T12:37:05.852Z,34.35
2018-08-22T12:37:44.854Z,34.27
2018-08-22T12:38:44.761Z,34.32
2018-08-22T12:39:44.753Z,34.47
2018-08-22T12:40:44.618Z,34.60
2018-08-22T12:41:44.663Z,34.79
2018-08-22T12:43:05.473Z,34.76
2018-08-22T12:43:44.437Z,34.79
2018-08-22T12:44:44.363Z,34.80
2018-08-22T12:45:44.313Z,34.72
2018-08-22T12:46:44.243Z,34.49
2018-08-22T12:47:44.187Z,34.41
2018-08-22T12:49:05.108Z,34.29
2018-08-22T12:49:44.071Z,34.30
2018-08-22T12:50:43.991Z,34.27
2018-08-22T12:51:43.944Z,34.38